sensor_id;sensor_type;location;lat;lon;timestamp;P1;durP1;ratioP1;P2;durP2;ratioP2
11344;SDS011;5727;42.600;23.028;2022-09-09T00:00:17;16.80;;;11.30;;
11344;SDS011;5727;42.600;23.028;2022-09-09T00:02:48;13.83;;;10.87;;
11344;SDS011;5727;42.600;23.028;2022-09-09T00:05:31;14.27;;;11.20;;
11344;SDS011;5727;42.600;23.028;2022-09-09T00:08:07;12.73;;;10.17;;
11344;SDS011;5727;42.600;23.028;2022-09-09T00:10:41;15.57;;;11.17;;
11344;SDS011;5727;42.600;23.028;2022-09-09T00:13:13;12.53;;;9.93;;
11344;SDS011;5727;42.600;23.028;2022-09-09T00:15:46;15.83;;;11.40;;
11344;SDS011;5727;42.600;23.028;2022-09-09T00:18:24;15.13;;;11.20;;
11344;SDS011;5727;42.600;23.028;2022-09-09T00:20:57;12.30;;;10.03;;
11344;SDS011;5727;42.600;23.028;2022-09-09T00:23:30;14.33;;;11.07;;
11344;SDS011;5727;42.600;23.028;2022-09-09T00:26:03;11.73;;;10.47;;
11344;SDS011;5727;42.600;23.028;2022-09-09T00:28:36;13.27;;;10.63;;
11344;SDS011;5727;42.600;23.028;2022-09-09T00:31:10;12.57;;;10.90;;
11344;SDS011;5727;42.600;23.028;2022-09-09T00:33:39;14.83;;;11.10;;
11344;SDS011;5727;42.600;23.028;2022-09-09T00:36:12;12.07;;;10.43;;
11344;SDS011;5727;42.600;23.028;2022-09-09T00:38:42;10.73;;;9.60;;
11344;SDS011;5727;42.600;23.028;2022-09-09T00:41:14;14.07;;;10.53;;
11344;SDS011;5727;42.600;23.028;2022-09-09T00:43:46;13.90;;;10.57;;
11344;SDS011;5727;42.600;23.028;2022-09-09T00:46:26;12.17;;;10.97;;
11344;SDS011;5727;42.600;23.028;2022-09-09T00:49:15;13.30;;;11.00;;
11344;SDS011;5727;42.600;23.028;2022-09-09T00:51:58;13.93;;;10.47;;
11344;SDS011;5727;42.600;23.028;2022-09-09T00:54:35;14.47;;;11.17;;
11344;SDS011;5727;42.600;23.028;2022-09-09T00:57:18;14.13;;;11.43;;
11344;SDS011;5727;42.600;23.028;2022-09-09T01:02:46;13.13;;;10.97;;
11344;SDS011;5727;42.600;23.028;2022-09-09T01:05:30;13.10;;;11.70;;
11344;SDS011;5727;42.600;23.028;2022-09-09T01:08:12;14.17;;;11.50;;
11344;SDS011;5727;42.600;23.028;2022-09-09T01:10:53;15.27;;;12.33;;
11344;SDS011;5727;42.600;23.028;2022-09-09T01:13:23;16.40;;;12.17;;
11344;SDS011;5727;42.600;23.028;2022-09-09T01:15:52;17.30;;;12.77;;
11344;SDS011;5727;42.600;23.028;2022-09-09T01:18:20;16.20;;;13.57;;
11344;SDS011;5727;42.600;23.028;2022-09-09T01:20:54;18.63;;;13.57;;
11344;SDS011;5727;42.600;23.028;2022-09-09T01:23:38;15.80;;;13.13;;
11344;SDS011;5727;42.600;23.028;2022-09-09T01:26:20;15.83;;;13.93;;
11344;SDS011;5727;42.600;23.028;2022-09-09T01:28:49;15.83;;;12.50;;
11344;SDS011;5727;42.600;23.028;2022-09-09T01:31:19;14.70;;;12.27;;
11344;SDS011;5727;42.600;23.028;2022-09-09T01:33:48;16.13;;;13.37;;
11344;SDS011;5727;42.600;23.028;2022-09-09T01:36:18;17.37;;;12.60;;
11344;SDS011;5727;42.600;23.028;2022-09-09T01:38:51;13.70;;;11.77;;
11344;SDS011;5727;42.600;23.028;2022-09-09T01:41:18;14.20;;;11.87;;
11344;SDS011;5727;42.600;23.028;2022-09-09T01:43:47;14.90;;;12.17;;
11344;SDS011;5727;42.600;23.028;2022-09-09T01:46:14;15.13;;;12.83;;
11344;SDS011;5727;42.600;23.028;2022-09-09T01:48:41;17.30;;;12.50;;
11344;SDS011;5727;42.600;23.028;2022-09-09T01:51:08;17.10;;;12.17;;
11344;SDS011;5727;42.600;23.028;2022-09-09T01:53:36;15.87;;;13.53;;
11344;SDS011;5727;42.600;23.028;2022-09-09T01:56:08;15.87;;;12.97;;
11344;SDS011;5727;42.600;23.028;2022-09-09T01:58:52;16.63;;;14.27;;
11344;SDS011;5727;42.600;23.028;2022-09-09T02:01:34;14.50;;;13.00;;
11344;SDS011;5727;42.600;23.028;2022-09-09T02:04:15;17.00;;;12.67;;
11344;SDS011;5727;42.600;23.028;2022-09-09T02:06:51;17.63;;;12.63;;
11344;SDS011;5727;42.600;23.028;2022-09-09T02:09:22;16.43;;;13.23;;
11344;SDS011;5727;42.600;23.028;2022-09-09T02:11:51;14.43;;;12.97;;
11344;SDS011;5727;42.600;23.028;2022-09-09T02:14:32;16.00;;;13.60;;
11344;SDS011;5727;42.600;23.028;2022-09-09T02:17:06;15.90;;;12.83;;
11344;SDS011;5727;42.600;23.028;2022-09-09T02:19:36;16.83;;;13.83;;
11344;SDS011;5727;42.600;23.028;2022-09-09T02:22:07;18.03;;;14.27;;
11344;SDS011;5727;42.600;23.028;2022-09-09T02:24:36;17.47;;;13.33;;
11344;SDS011;5727;42.600;23.028;2022-09-09T02:27:06;15.63;;;12.50;;
11344;SDS011;5727;42.600;23.028;2022-09-09T02:29:37;13.67;;;12.27;;
11344;SDS011;5727;42.600;23.028;2022-09-09T02:32:08;15.70;;;13.63;;
11344;SDS011;5727;42.600;23.028;2022-09-09T02:34:40;19.33;;;14.87;;
11344;SDS011;5727;42.600;23.028;2022-09-09T02:37:10;18.10;;;13.70;;
11344;SDS011;5727;42.600;23.028;2022-09-09T02:39:39;17.53;;;14.80;;
11344;SDS011;5727;42.600;23.028;2022-09-09T02:42:06;15.23;;;13.70;;
11344;SDS011;5727;42.600;23.028;2022-09-09T02:44:34;16.93;;;13.67;;
11344;SDS011;5727;42.600;23.028;2022-09-09T02:50:02;16.47;;;13.50;;
11344;SDS011;5727;42.600;23.028;2022-09-09T02:52:37;16.20;;;14.50;;
11344;SDS011;5727;42.600;23.028;2022-09-09T02:55:12;15.90;;;13.80;;
11344;SDS011;5727;42.600;23.028;2022-09-09T02:57:46;18.87;;;14.17;;
11344;SDS011;5727;42.600;23.028;2022-09-09T03:00:16;16.30;;;14.67;;
11344;SDS011;5727;42.600;23.028;2022-09-09T03:02:49;16.43;;;14.13;;
11344;SDS011;5727;42.600;23.028;2022-09-09T03:05:16;15.50;;;13.77;;
11344;SDS011;5727;42.600;23.028;2022-09-09T03:07:43;17.57;;;14.10;;
11344;SDS011;5727;42.600;23.028;2022-09-09T03:10:10;15.03;;;13.43;;
11344;SDS011;5727;42.600;23.028;2022-09-09T03:12:36;14.43;;;12.87;;
11344;SDS011;5727;42.600;23.028;2022-09-09T03:15:04;14.73;;;12.83;;
11344;SDS011;5727;42.600;23.028;2022-09-09T03:17:33;15.97;;;14.27;;
11344;SDS011;5727;42.600;23.028;2022-09-09T03:20:00;14.63;;;13.03;;
11344;SDS011;5727;42.600;23.028;2022-09-09T03:22:27;14.67;;;13.30;;
11344;SDS011;5727;42.600;23.028;2022-09-09T03:24:54;16.87;;;12.17;;
11344;SDS011;5727;42.600;23.028;2022-09-09T03:27:21;14.93;;;13.33;;
11344;SDS011;5727;42.600;23.028;2022-09-09T03:29:48;15.43;;;12.77;;
11344;SDS011;5727;42.600;23.028;2022-09-09T03:32:16;16.40;;;12.87;;
11344;SDS011;5727;42.600;23.028;2022-09-09T03:34:44;13.90;;;12.40;;
11344;SDS011;5727;42.600;23.028;2022-09-09T03:37:12;18.23;;;13.43;;
11344;SDS011;5727;42.600;23.028;2022-09-09T03:39:39;14.77;;;13.23;;
11344;SDS011;5727;42.600;23.028;2022-09-09T03:42:06;16.90;;;12.87;;
11344;SDS011;5727;42.600;23.028;2022-09-09T03:44:33;15.67;;;13.97;;
11344;SDS011;5727;42.600;23.028;2022-09-09T03:46:59;17.20;;;13.27;;
11344;SDS011;5727;42.600;23.028;2022-09-09T03:49:26;16.93;;;13.57;;
11344;SDS011;5727;42.600;23.028;2022-09-09T03:51:55;15.73;;;13.20;;
11344;SDS011;5727;42.600;23.028;2022-09-09T03:54:24;16.17;;;14.33;;
11344;SDS011;5727;42.600;23.028;2022-09-09T03:56:51;17.30;;;13.43;;
11344;SDS011;5727;42.600;23.028;2022-09-09T03:59:18;17.00;;;14.50;;
11344;SDS011;5727;42.600;23.028;2022-09-09T04:01:45;16.17;;;14.33;;
11344;SDS011;5727;42.600;23.028;2022-09-09T04:04:12;14.60;;;13.10;;
11344;SDS011;5727;42.600;23.028;2022-09-09T04:06:39;18.03;;;13.50;;
11344;SDS011;5727;42.600;23.028;2022-09-09T04:09:07;17.97;;;14.80;;
11344;SDS011;5727;42.600;23.028;2022-09-09T04:11:34;17.17;;;13.83;;
11344;SDS011;5727;42.600;23.028;2022-09-09T04:14:02;18.90;;;13.77;;
11344;SDS011;5727;42.600;23.028;2022-09-09T04:16:29;20.90;;;13.53;;
11344;SDS011;5727;42.600;23.028;2022-09-09T04:18:55;15.47;;;13.63;;
11344;SDS011;5727;42.600;23.028;2022-09-09T04:21:23;17.50;;;13.83;;
11344;SDS011;5727;42.600;23.028;2022-09-09T04:23:49;14.70;;;13.20;;
11344;SDS011;5727;42.600;23.028;2022-09-09T04:26:18;14.77;;;13.03;;
11344;SDS011;5727;42.600;23.028;2022-09-09T04:28:45;17.70;;;13.57;;
11344;SDS011;5727;42.600;23.028;2022-09-09T04:31:14;17.00;;;14.67;;
11344;SDS011;5727;42.600;23.028;2022-09-09T04:33:43;15.77;;;14.07;;
11344;SDS011;5727;42.600;23.028;2022-09-09T04:36:09;17.03;;;14.73;;
11344;SDS011;5727;42.600;23.028;2022-09-09T04:38:37;17.83;;;13.27;;
11344;SDS011;5727;42.600;23.028;2022-09-09T04:41:04;22.13;;;15.37;;
11344;SDS011;5727;42.600;23.028;2022-09-09T04:43:33;16.30;;;14.23;;
11344;SDS011;5727;42.600;23.028;2022-09-09T04:46:00;18.03;;;15.03;;
11344;SDS011;5727;42.600;23.028;2022-09-09T04:48:27;17.80;;;14.97;;
11344;SDS011;5727;42.600;23.028;2022-09-09T04:50:55;18.43;;;14.63;;
11344;SDS011;5727;42.600;23.028;2022-09-09T04:53:22;17.43;;;15.50;;
11344;SDS011;5727;42.600;23.028;2022-09-09T04:55:50;22.60;;;16.03;;
11344;SDS011;5727;42.600;23.028;2022-09-09T04:58:17;18.57;;;14.80;;
11344;SDS011;5727;42.600;23.028;2022-09-09T05:00:48;20.60;;;15.63;;
11344;SDS011;5727;42.600;23.028;2022-09-09T05:03:15;22.00;;;15.90;;
11344;SDS011;5727;42.600;23.028;2022-09-09T05:05:42;16.47;;;14.20;;
11344;SDS011;5727;42.600;23.028;2022-09-09T05:08:09;16.57;;;14.87;;
11344;SDS011;5727;42.600;23.028;2022-09-09T05:10:36;16.97;;;15.00;;
11344;SDS011;5727;42.600;23.028;2022-09-09T05:13:07;16.87;;;15.07;;
11344;SDS011;5727;42.600;23.028;2022-09-09T05:15:33;18.53;;;14.83;;
11344;SDS011;5727;42.600;23.028;2022-09-09T05:18:02;21.27;;;15.97;;
11344;SDS011;5727;42.600;23.028;2022-09-09T05:20:29;16.87;;;15.10;;
11344;SDS011;5727;42.600;23.028;2022-09-09T05:22:56;19.67;;;16.03;;
11344;SDS011;5727;42.600;23.028;2022-09-09T05:25:23;15.23;;;13.63;;
11344;SDS011;5727;42.600;23.028;2022-09-09T05:27:51;17.37;;;15.53;;
11344;SDS011;5727;42.600;23.028;2022-09-09T05:30:18;18.87;;;15.90;;
11344;SDS011;5727;42.600;23.028;2022-09-09T05:32:45;17.17;;;15.47;;
11344;SDS011;5727;42.600;23.028;2022-09-09T05:35:15;19.33;;;14.93;;
11344;SDS011;5727;42.600;23.028;2022-09-09T05:37:44;16.63;;;14.90;;
11344;SDS011;5727;42.600;23.028;2022-09-09T05:40:11;18.53;;;15.87;;
11344;SDS011;5727;42.600;23.028;2022-09-09T05:42:38;17.67;;;15.27;;
11344;SDS011;5727;42.600;23.028;2022-09-09T05:45:06;16.97;;;15.03;;
11344;SDS011;5727;42.600;23.028;2022-09-09T05:47:33;20.53;;;15.93;;
11344;SDS011;5727;42.600;23.028;2022-09-09T05:50:02;17.43;;;15.03;;
11344;SDS011;5727;42.600;23.028;2022-09-09T05:52:31;16.83;;;15.03;;
11344;SDS011;5727;42.600;23.028;2022-09-09T05:54:58;18.67;;;15.23;;
11344;SDS011;5727;42.600;23.028;2022-09-09T05:57:24;21.83;;;15.20;;
11344;SDS011;5727;42.600;23.028;2022-09-09T05:59:51;19.03;;;15.67;;
11344;SDS011;5727;42.600;23.028;2022-09-09T06:02:18;17.17;;;15.37;;
11344;SDS011;5727;42.600;23.028;2022-09-09T06:04:45;17.00;;;15.33;;
11344;SDS011;5727;42.600;23.028;2022-09-09T06:07:12;17.37;;;15.57;;
11344;SDS011;5727;42.600;23.028;2022-09-09T06:09:41;19.13;;;14.93;;
11344;SDS011;5727;42.600;23.028;2022-09-09T06:12:07;18.37;;;15.50;;
11344;SDS011;5727;42.600;23.028;2022-09-09T06:14:34;18.90;;;15.13;;
11344;SDS011;5727;42.600;23.028;2022-09-09T06:17:01;18.27;;;14.97;;
11344;SDS011;5727;42.600;23.028;2022-09-09T06:19:28;17.67;;;15.93;;
11344;SDS011;5727;42.600;23.028;2022-09-09T06:21:55;18.10;;;15.03;;
11344;SDS011;5727;42.600;23.028;2022-09-09T06:24:22;19.93;;;14.07;;
11344;SDS011;5727;42.600;23.028;2022-09-09T06:26:50;16.23;;;14.53;;
11344;SDS011;5727;42.600;23.028;2022-09-09T06:29:17;17.87;;;14.27;;
11344;SDS011;5727;42.600;23.028;2022-09-09T06:31:44;16.97;;;13.57;;
11344;SDS011;5727;42.600;23.028;2022-09-09T06:34:10;18.63;;;14.70;;
11344;SDS011;5727;42.600;23.028;2022-09-09T06:36:38;18.20;;;13.83;;
11344;SDS011;5727;42.600;23.028;2022-09-09T06:39:06;19.50;;;14.07;;
11344;SDS011;5727;42.600;23.028;2022-09-09T06:41:33;16.23;;;13.37;;
11344;SDS011;5727;42.600;23.028;2022-09-09T06:44:02;17.33;;;13.57;;
11344;SDS011;5727;42.600;23.028;2022-09-09T06:46:30;16.77;;;14.03;;
11344;SDS011;5727;42.600;23.028;2022-09-09T06:48:58;17.63;;;13.60;;
11344;SDS011;5727;42.600;23.028;2022-09-09T06:51:26;17.00;;;12.90;;
11344;SDS011;5727;42.600;23.028;2022-09-09T06:53:54;14.63;;;12.87;;
11344;SDS011;5727;42.600;23.028;2022-09-09T06:56:23;16.53;;;12.33;;
11344;SDS011;5727;42.600;23.028;2022-09-09T06:58:54;21.23;;;11.73;;
11344;SDS011;5727;42.600;23.028;2022-09-09T07:01:23;13.97;;;11.60;;
11344;SDS011;5727;42.600;23.028;2022-09-09T07:03:51;15.47;;;10.73;;
11344;SDS011;5727;42.600;23.028;2022-09-09T07:06:20;13.07;;;10.67;;
11344;SDS011;5727;42.600;23.028;2022-09-09T07:08:49;13.43;;;11.17;;
11344;SDS011;5727;42.600;23.028;2022-09-09T07:11:17;12.37;;;10.93;;
11344;SDS011;5727;42.600;23.028;2022-09-09T07:13:45;15.67;;;10.83;;
11344;SDS011;5727;42.600;23.028;2022-09-09T07:16:13;13.93;;;10.97;;
11344;SDS011;5727;42.600;23.028;2022-09-09T07:18:42;13.47;;;9.80;;
11344;SDS011;5727;42.600;23.028;2022-09-09T07:21:10;13.07;;;10.63;;
11344;SDS011;5727;42.600;23.028;2022-09-09T07:23:38;12.57;;;9.30;;
11344;SDS011;5727;42.600;23.028;2022-09-09T07:26:07;10.57;;;7.83;;
11344;SDS011;5727;42.600;23.028;2022-09-09T07:28:35;12.10;;;8.10;;
11344;SDS011;5727;42.600;23.028;2022-09-09T07:31:03;10.37;;;6.90;;
11344;SDS011;5727;42.600;23.028;2022-09-09T07:33:30;10.60;;;7.27;;
11344;SDS011;5727;42.600;23.028;2022-09-09T07:36:04;8.77;;;6.80;;
11344;SDS011;5727;42.600;23.028;2022-09-09T07:38:32;12.10;;;6.80;;
11344;SDS011;5727;42.600;23.028;2022-09-09T07:41:04;8.30;;;6.80;;
11344;SDS011;5727;42.600;23.028;2022-09-09T07:43:32;11.50;;;6.80;;
11344;SDS011;5727;42.600;23.028;2022-09-09T07:45:59;13.53;;;7.23;;
11344;SDS011;5727;42.600;23.028;2022-09-09T07:48:27;11.53;;;6.63;;
11344;SDS011;5727;42.600;23.028;2022-09-09T07:51:03;9.83;;;6.20;;
11344;SDS011;5727;42.600;23.028;2022-09-09T07:53:32;14.43;;;6.37;;
11344;SDS011;5727;42.600;23.028;2022-09-09T07:56:02;8.90;;;5.63;;
11344;SDS011;5727;42.600;23.028;2022-09-09T07:58:29;12.23;;;6.57;;
11344;SDS011;5727;42.600;23.028;2022-09-09T08:00:56;8.57;;;6.40;;
11344;SDS011;5727;42.600;23.028;2022-09-09T08:03:23;9.17;;;6.27;;
11344;SDS011;5727;42.600;23.028;2022-09-09T08:05:50;12.30;;;6.70;;
11344;SDS011;5727;42.600;23.028;2022-09-09T08:08:18;11.37;;;6.53;;
11344;SDS011;5727;42.600;23.028;2022-09-09T08:10:45;9.93;;;6.63;;
11344;SDS011;5727;42.600;23.028;2022-09-09T08:13:12;9.70;;;6.87;;
11344;SDS011;5727;42.600;23.028;2022-09-09T08:15:39;9.13;;;6.77;;
11344;SDS011;5727;42.600;23.028;2022-09-09T08:18:06;9.97;;;7.20;;
11344;SDS011;5727;42.600;23.028;2022-09-09T08:20:35;11.27;;;6.10;;
11344;SDS011;5727;42.600;23.028;2022-09-09T08:23:03;15.00;;;6.10;;
11344;SDS011;5727;42.600;23.028;2022-09-09T08:25:31;11.23;;;6.70;;
11344;SDS011;5727;42.600;23.028;2022-09-09T08:27:59;10.37;;;6.83;;
11344;SDS011;5727;42.600;23.028;2022-09-09T08:30:26;13.73;;;6.70;;
11344;SDS011;5727;42.600;23.028;2022-09-09T08:32:53;11.97;;;6.77;;
11344;SDS011;5727;42.600;23.028;2022-09-09T08:35:20;13.10;;;6.70;;
11344;SDS011;5727;42.600;23.028;2022-09-09T08:37:47;8.77;;;6.23;;
11344;SDS011;5727;42.600;23.028;2022-09-09T08:40:17;11.00;;;6.77;;
11344;SDS011;5727;42.600;23.028;2022-09-09T08:42:54;10.33;;;6.03;;
11344;SDS011;5727;42.600;23.028;2022-09-09T08:45:29;12.30;;;6.07;;
11344;SDS011;5727;42.600;23.028;2022-09-09T08:48:13;13.20;;;6.90;;
11344;SDS011;5727;42.600;23.028;2022-09-09T08:50:49;8.97;;;5.93;;
11344;SDS011;5727;42.600;23.028;2022-09-09T08:53:18;9.03;;;5.67;;
11344;SDS011;5727;42.600;23.028;2022-09-09T08:55:50;9.60;;;5.83;;
11344;SDS011;5727;42.600;23.028;2022-09-09T08:58:21;12.80;;;6.27;;
11344;SDS011;5727;42.600;23.028;2022-09-09T09:01:02;11.87;;;6.00;;
11344;SDS011;5727;42.600;23.028;2022-09-09T09:03:47;12.60;;;7.53;;
11344;SDS011;5727;42.600;23.028;2022-09-09T09:06:23;10.90;;;6.70;;
11344;SDS011;5727;42.600;23.028;2022-09-09T09:09:04;10.83;;;6.20;;
11344;SDS011;5727;42.600;23.028;2022-09-09T09:11:35;11.50;;;5.77;;
11344;SDS011;5727;42.600;23.028;2022-09-09T09:14:07;8.90;;;6.13;;
11344;SDS011;5727;42.600;23.028;2022-09-09T09:16:38;15.00;;;6.40;;
11344;SDS011;5727;42.600;23.028;2022-09-09T09:19:14;7.47;;;6.00;;
11344;SDS011;5727;42.600;23.028;2022-09-09T09:21:43;10.17;;;6.03;;
11344;SDS011;5727;42.600;23.028;2022-09-09T09:24:13;11.40;;;6.20;;
11344;SDS011;5727;42.600;23.028;2022-09-09T09:26:45;12.03;;;6.93;;
11344;SDS011;5727;42.600;23.028;2022-09-09T09:29:14;11.73;;;6.53;;
11344;SDS011;5727;42.600;23.028;2022-09-09T09:31:44;11.90;;;6.87;;
11344;SDS011;5727;42.600;23.028;2022-09-09T09:34:14;10.03;;;6.20;;
11344;SDS011;5727;42.600;23.028;2022-09-09T09:36:43;12.00;;;7.67;;
11344;SDS011;5727;42.600;23.028;2022-09-09T09:39:21;11.30;;;6.57;;
11344;SDS011;5727;42.600;23.028;2022-09-09T09:41:51;12.30;;;6.57;;
11344;SDS011;5727;42.600;23.028;2022-09-09T09:44:24;12.40;;;6.63;;
11344;SDS011;5727;42.600;23.028;2022-09-09T09:46:52;12.60;;;6.23;;
11344;SDS011;5727;42.600;23.028;2022-09-09T09:49:31;11.27;;;7.10;;
11344;SDS011;5727;42.600;23.028;2022-09-09T09:51:59;8.70;;;5.90;;
11344;SDS011;5727;42.600;23.028;2022-09-09T09:54:27;12.20;;;6.57;;
11344;SDS011;5727;42.600;23.028;2022-09-09T09:56:55;17.67;;;6.53;;
11344;SDS011;5727;42.600;23.028;2022-09-09T09:59:34;11.93;;;5.63;;
11344;SDS011;5727;42.600;23.028;2022-09-09T10:02:18;11.47;;;6.10;;
11344;SDS011;5727;42.600;23.028;2022-09-09T10:05:00;8.57;;;6.00;;
11344;SDS011;5727;42.600;23.028;2022-09-09T10:07:27;11.77;;;6.27;;
11344;SDS011;5727;42.600;23.028;2022-09-09T10:09:54;9.07;;;5.97;;
11344;SDS011;5727;42.600;23.028;2022-09-09T10:12:25;10.53;;;6.33;;
11344;SDS011;5727;42.600;23.028;2022-09-09T10:15:05;6.93;;;6.20;;
11344;SDS011;5727;42.600;23.028;2022-09-09T10:17:54;8.90;;;6.80;;
11344;SDS011;5727;42.600;23.028;2022-09-09T10:20:32;10.17;;;5.67;;
11344;SDS011;5727;42.600;23.028;2022-09-09T10:23:11;12.30;;;6.80;;
11344;SDS011;5727;42.600;23.028;2022-09-09T10:25:55;11.97;;;6.60;;
11344;SDS011;5727;42.600;23.028;2022-09-09T10:31:31;11.33;;;6.47;;
11344;SDS011;5727;42.600;23.028;2022-09-09T10:34:09;8.63;;;6.30;;
11344;SDS011;5727;42.600;23.028;2022-09-09T10:36:46;9.20;;;6.13;;
11344;SDS011;5727;42.600;23.028;2022-09-09T10:39:18;8.00;;;6.17;;
11344;SDS011;5727;42.600;23.028;2022-09-09T10:41:59;8.33;;;6.50;;
11344;SDS011;5727;42.600;23.028;2022-09-09T10:44:43;7.40;;;6.57;;
11344;SDS011;5727;42.600;23.028;2022-09-09T10:47:24;8.07;;;6.20;;
11344;SDS011;5727;42.600;23.028;2022-09-09T10:53:08;7.63;;;6.10;;
11344;SDS011;5727;42.600;23.028;2022-09-09T10:55:44;9.50;;;7.07;;
11344;SDS011;5727;42.600;23.028;2022-09-09T10:58:16;7.63;;;6.00;;
11344;SDS011;5727;42.600;23.028;2022-09-09T11:00:50;9.73;;;6.50;;
11344;SDS011;5727;42.600;23.028;2022-09-09T11:03:24;9.93;;;6.67;;
11344;SDS011;5727;42.600;23.028;2022-09-09T11:05:55;8.03;;;6.43;;
11344;SDS011;5727;42.600;23.028;2022-09-09T11:08:26;10.57;;;6.60;;
11344;SDS011;5727;42.600;23.028;2022-09-09T11:10:57;7.90;;;6.50;;
11344;SDS011;5727;42.600;23.028;2022-09-09T11:13:30;13.63;;;6.83;;
11344;SDS011;5727;42.600;23.028;2022-09-09T11:16:04;7.43;;;6.67;;
11344;SDS011;5727;42.600;23.028;2022-09-09T11:18:44;9.50;;;7.60;;
11344;SDS011;5727;42.600;23.028;2022-09-09T11:21:14;11.17;;;7.93;;
11344;SDS011;5727;42.600;23.028;2022-09-09T11:23:48;8.57;;;7.00;;
11344;SDS011;5727;42.600;23.028;2022-09-09T11:26:21;9.80;;;7.23;;
11344;SDS011;5727;42.600;23.028;2022-09-09T11:28:57;9.77;;;7.13;;
11344;SDS011;5727;42.600;23.028;2022-09-09T11:31:43;9.83;;;8.07;;
11344;SDS011;5727;42.600;23.028;2022-09-09T11:34:17;8.37;;;7.30;;
11344;SDS011;5727;42.600;23.028;2022-09-09T11:37:00;9.20;;;7.00;;
11344;SDS011;5727;42.600;23.028;2022-09-09T11:42:35;7.50;;;6.30;;
11344;SDS011;5727;42.600;23.028;2022-09-09T11:45:09;6.33;;;5.73;;
11344;SDS011;5727;42.600;23.028;2022-09-09T11:47:51;8.23;;;5.73;;
11344;SDS011;5727;42.600;23.028;2022-09-09T11:53:21;8.27;;;6.03;;
11344;SDS011;5727;42.600;23.028;2022-09-09T11:56:00;9.63;;;5.50;;
11344;SDS011;5727;42.600;23.028;2022-09-09T11:58:42;8.03;;;6.27;;
11344;SDS011;5727;42.600;23.028;2022-09-09T12:01:26;9.40;;;6.00;;
11344;SDS011;5727;42.600;23.028;2022-09-09T12:06:58;10.47;;;5.97;;
11344;SDS011;5727;42.600;23.028;2022-09-09T12:09:31;8.07;;;6.10;;
11344;SDS011;5727;42.600;23.028;2022-09-09T12:12:29;8.97;;;6.37;;
11344;SDS011;5727;42.600;23.028;2022-09-09T12:15:17;10.03;;;5.53;;
11344;SDS011;5727;42.600;23.028;2022-09-09T12:17:47;7.70;;;5.97;;
11344;SDS011;5727;42.600;23.028;2022-09-09T12:20:16;7.23;;;6.07;;
11344;SDS011;5727;42.600;23.028;2022-09-09T12:25:52;10.60;;;7.30;;
11344;SDS011;5727;42.600;23.028;2022-09-09T12:28:26;9.47;;;6.17;;
11344;SDS011;5727;42.600;23.028;2022-09-09T12:31:04;7.30;;;6.33;;
11344;SDS011;5727;42.600;23.028;2022-09-09T12:33:35;9.93;;;6.90;;
11344;SDS011;5727;42.600;23.028;2022-09-09T12:36:05;7.17;;;6.47;;
11344;SDS011;5727;42.600;23.028;2022-09-09T12:38:40;10.20;;;6.87;;
11344;SDS011;5727;42.600;23.028;2022-09-09T12:41:16;8.67;;;6.10;;
11344;SDS011;5727;42.600;23.028;2022-09-09T12:43:46;10.77;;;6.27;;
11344;SDS011;5727;42.600;23.028;2022-09-09T12:46:15;8.83;;;5.90;;
11344;SDS011;5727;42.600;23.028;2022-09-09T12:48:51;6.83;;;5.80;;
11344;SDS011;5727;42.600;23.028;2022-09-09T12:51:19;8.47;;;6.43;;
11344;SDS011;5727;42.600;23.028;2022-09-09T12:53:52;11.33;;;5.80;;
11344;SDS011;5727;42.600;23.028;2022-09-09T12:56:20;9.47;;;5.97;;
11344;SDS011;5727;42.600;23.028;2022-09-09T12:58:49;6.57;;;5.07;;
11344;SDS011;5727;42.600;23.028;2022-09-09T13:01:20;7.23;;;5.27;;
11344;SDS011;5727;42.600;23.028;2022-09-09T13:03:52;7.13;;;5.17;;
11344;SDS011;5727;42.600;23.028;2022-09-09T13:06:20;7.70;;;5.13;;
11344;SDS011;5727;42.600;23.028;2022-09-09T13:08:48;7.10;;;5.50;;
11344;SDS011;5727;42.600;23.028;2022-09-09T13:11:18;6.17;;;5.57;;
11344;SDS011;5727;42.600;23.028;2022-09-09T13:13:50;7.83;;;4.70;;
11344;SDS011;5727;42.600;23.028;2022-09-09T13:16:20;6.53;;;4.80;;
11344;SDS011;5727;42.600;23.028;2022-09-09T13:18:49;7.97;;;5.30;;
11344;SDS011;5727;42.600;23.028;2022-09-09T13:21:16;8.37;;;5.43;;
11344;SDS011;5727;42.600;23.028;2022-09-09T13:23:47;8.53;;;5.23;;
11344;SDS011;5727;42.600;23.028;2022-09-09T13:26:24;9.30;;;5.83;;
11344;SDS011;5727;42.600;23.028;2022-09-09T13:28:52;8.00;;;5.60;;
11344;SDS011;5727;42.600;23.028;2022-09-09T13:31:23;8.03;;;4.87;;
11344;SDS011;5727;42.600;23.028;2022-09-09T13:33:52;6.67;;;5.37;;
11344;SDS011;5727;42.600;23.028;2022-09-09T13:36:27;8.00;;;5.60;;
11344;SDS011;5727;42.600;23.028;2022-09-09T13:38:56;7.77;;;5.83;;
11344;SDS011;5727;42.600;23.028;2022-09-09T13:41:28;8.10;;;5.67;;
11344;SDS011;5727;42.600;23.028;2022-09-09T13:43:57;10.20;;;5.50;;
11344;SDS011;5727;42.600;23.028;2022-09-09T13:46:32;8.30;;;4.90;;
11344;SDS011;5727;42.600;23.028;2022-09-09T13:49:01;9.23;;;4.87;;
11344;SDS011;5727;42.600;23.028;2022-09-09T13:51:45;11.23;;;5.70;;
11344;SDS011;5727;42.600;23.028;2022-09-09T13:54:14;11.00;;;4.60;;
11344;SDS011;5727;42.600;23.028;2022-09-09T13:56:44;5.73;;;4.13;;
11344;SDS011;5727;42.600;23.028;2022-09-09T13:59:12;7.70;;;4.73;;
11344;SDS011;5727;42.600;23.028;2022-09-09T14:01:41;5.70;;;4.70;;
11344;SDS011;5727;42.600;23.028;2022-09-09T14:04:08;9.13;;;4.70;;
11344;SDS011;5727;42.600;23.028;2022-09-09T14:06:35;6.40;;;4.87;;
11344;SDS011;5727;42.600;23.028;2022-09-09T14:09:04;7.93;;;5.40;;
11344;SDS011;5727;42.600;23.028;2022-09-09T14:11:31;6.63;;;4.73;;
11344;SDS011;5727;42.600;23.028;2022-09-09T14:13:59;5.80;;;5.20;;
11344;SDS011;5727;42.600;23.028;2022-09-09T14:16:26;7.22;;;4.97;;
11344;SDS011;5727;42.600;23.028;2022-09-09T14:18:53;6.65;;;4.45;;
11344;SDS011;5727;42.600;23.028;2022-09-09T14:21:21;9.77;;;4.60;;
11344;SDS011;5727;42.600;23.028;2022-09-09T14:23:48;7.28;;;4.40;;
11344;SDS011;5727;42.600;23.028;2022-09-09T14:26:15;5.28;;;4.70;;
11344;SDS011;5727;42.600;23.028;2022-09-09T14:28:45;5.82;;;4.25;;
11344;SDS011;5727;42.600;23.028;2022-09-09T14:31:13;5.60;;;3.60;;
11344;SDS011;5727;42.600;23.028;2022-09-09T14:33:42;9.05;;;5.20;;
11344;SDS011;5727;42.600;23.028;2022-09-09T14:36:09;6.95;;;4.07;;
11344;SDS011;5727;42.600;23.028;2022-09-09T14:38:37;7.13;;;4.72;;
11344;SDS011;5727;42.600;23.028;2022-09-09T14:41:04;7.03;;;4.50;;
11344;SDS011;5727;42.600;23.028;2022-09-09T14:43:31;7.43;;;4.25;;
11344;SDS011;5727;42.600;23.028;2022-09-09T14:46:04;7.57;;;4.30;;
11344;SDS011;5727;42.600;23.028;2022-09-09T14:48:33;6.20;;;4.90;;
11344;SDS011;5727;42.600;23.028;2022-09-09T14:51:04;8.30;;;4.40;;
11344;SDS011;5727;42.600;23.028;2022-09-09T14:53:32;7.80;;;4.80;;
11344;SDS011;5727;42.600;23.028;2022-09-09T14:56:03;6.47;;;4.70;;
11344;SDS011;5727;42.600;23.028;2022-09-09T14:58:31;7.82;;;4.32;;
11344;SDS011;5727;42.600;23.028;2022-09-09T15:01:03;5.25;;;4.25;;
11344;SDS011;5727;42.600;23.028;2022-09-09T15:03:33;5.40;;;3.97;;
11344;SDS011;5727;42.600;23.028;2022-09-09T15:06:04;7.03;;;5.05;;
11344;SDS011;5727;42.600;23.028;2022-09-09T15:08:33;6.55;;;4.88;;
11344;SDS011;5727;42.600;23.028;2022-09-09T15:11:01;9.77;;;4.72;;
11344;SDS011;5727;42.600;23.028;2022-09-09T15:13:28;7.45;;;5.00;;
11344;SDS011;5727;42.600;23.028;2022-09-09T15:15:55;8.35;;;4.60;;
11344;SDS011;5727;42.600;23.028;2022-09-09T15:18:23;9.38;;;4.78;;